Weather observations for the past three days for
Hot Springs / Ingalls
Imperial (Metric)
Date Time (edt) Wind (mph) Vis. (mi.) Weather Sky Cond. Temperature (ºF) Relative Humidity Wind Chill (°F) Heat Index (°F) Pressure Precipitation (in)
Air Dwpt 6 hour altimeter (in) sea level (mb) 1 hr 3 hr 6 hr
Max. Min.
05 17:35 S 9 10.00 Partly Cloudy SCT070 66.6 37.2 34% 29.95 0.0
05 17:15 S 9 10.00 Overcast SCT055 OVC070 66.2 40.1 39% 29.95 0.0
05 16:55 S 10 G 16 10.00 Mostly Cloudy SCT055 BKN070 67.3 40.8 38% 29.95 0.0
05 16:35 SW 12 G 24 10.00 Partly Cloudy SCT080 68.9 33.6 27% 29.95 0.0
05 16:15 SW 16 G 24 10.00 Partly Cloudy SCT080 69.6 32.5 25% 29.95 0.0
05 15:55 S 15 G 26 10.00 Fair CLR 70 32.7 25% 29.96 0.0
05 15:35 S 16 G 23 10.00 Partly Cloudy SCT070 69.6 34 27% 29.96 0.0
05 15:15 S 15 G 26 10.00 Partly Cloudy SCT070 69.3 34.7 28% 29.97 0.0
05 14:55 SW 12 G 23 7.00 Partly Cloudy SCT070 68.7 37 31% 29.98 0.0
05 14:35 S 14 G 24 10.00 Partly Cloudy SCT070 68.9 36.9 31% 29.98 0.0
05 14:15 SW 15 G 21 10.00 Fair CLR 68.5 38.7 34% 29.98 0.0
05 13:55 SW 14 G 22 7.00 Fair CLR 68.2 39.2 68.2 56.1 35% 29.99 0.0
05 13:35 SW 14 G 18 5.00 Fair with Haze CLR 67.3 39.4 36% 29.99 0.0
05 13:15 SW 18 G 25 5.00 Fair with Haze CLR 66.2 38.8 37% 30 0.0
05 12:55 SW 15 G 22 3.00 Fair with Haze CLR 65.1 39 38% 30.01 0.0
05 12:35 SW 12 G 24 7.00 Partly Cloudy SCT049 65.5 39.9 39% 30.01 0.0
05 12:15 SW 16 G 22 5.00 Fair with Haze CLR 65.1 41 41% 30.01 0.0
05 11:55 W 17 G 24 10.00 Partly Cloudy SCT044 64.4 41 43% 30.02 0.0
05 11:35 W 14 G 20 7.00 Partly Cloudy SCT042 SCT049 63.9 42.4 46% 30.03 0.0
05 11:15 W 8 G 20 7.00 Partly Cloudy SCT040 62.4 42.1 48% 30.02 0.0
05 10:55 W 14 G 23 7.00 Partly Cloudy SCT038 61.2 41.5 49% 30.02 0.0
05 10:35 W 16 G 25 7.00 Partly Cloudy SCT038 60.6 42.4 51% 30.02 0.0
05 10:15 W 21 G 28 7.00 Fair and Breezy CLR 60.3 42.8 53% 30.02 0.0
05 09:55 W 16 G 24 4.00 Fair with Haze CLR 59.9 42.8 53% 30.01 0.0
05 09:35 W 21 G 26 7.00 Fair and Breezy CLR 59 42.6 55% 30.01 0.0
05 09:15 W 20 G 28 7.00 Fair CLR 58.5 42.8 56% 30.01 0.0
05 08:55 W 17 G 22 7.00 Fair CLR 58.1 42.8 57% 30.01 0.0
05 08:35 W 17 G 25 7.00 Fair CLR 57.4 42.6 58% 30 0.0
05 08:15 W 16 G 24 10.00 Fair CLR 56.7 42.3 59% 30 0.0
05 07:55 W 21 G 28 5.00 Fair with Haze and Breezy CLR 56.1 42.3 56.1 54.5 60% 30 0.0
05 07:35 W 21 G 26 7.00 Fair and Breezy CLR 55.4 42.3 61% 29.99 0.0
05 07:15 W 18 G 23 7.00 Fair CLR 54.5 41.7 62% 29.99 0.0
05 06:55 W 16 G 22 7.00 Fair CLR 54.5 41.4 61% 29.99 0.0
05 06:35 W 18 G 26 7.00 Fair CLR 54.7 41 60% 29.98 0.0
05 06:15 W 20 G 25 7.00 Fair CLR 54.5 40.8 60% 29.98 0.0
05 05:55 W 18 G 25 7.00 Fair CLR 54.7 40.3 58% 29.97 0.0
05 05:35 W 20 G 28 7.00 Fair CLR 54.9 39.7 57% 29.97 0.0
05 05:15 W 21 G 26 7.00 Fair and Breezy CLR 55.2 39 55% 29.97 0.0
05 04:55 W 20 G 26 7.00 Fair CLR 55.4 39.2 55% 29.98 0.0
05 04:35 SW 22 G 26 10.00 Fair and Breezy CLR 55 38.8 55% 29.98 0.0
05 04:15 SW 16 7.00 Fair CLR 54.5 38.5 55% 29.97 0.0
05 03:55 SW 16 7.00 Fair CLR 54.7 38.3 54% 29.97 0.0
05 03:35 SW 15 G 20 7.00 Fair CLR 54.7 38.3 54% 29.96 0.0
05 03:15 SW 13 G 18 10.00 Fair CLR 55.2 37.9 52% 29.96 0.0
05 02:55 SW 15 G 21 7.00 Fair CLR 55.4 37.9 52% 29.96 0.0
05 02:35 SW 15 G 22 10.00 Fair CLR 55.6 38.1 52% 29.96 0.0
05 02:15 SW 16 7.00 Fair CLR 55.6 38.3 52% 29.96 0.0
05 01:55 SW 18 G 24 7.00 Fair CLR 55.6 38.3 59.9 55.6 52% 29.96 0.0
05 01:35 SW 17 G 23 5.00 Fair with Haze CLR 56.3 38.7 52% 29.95 0.0
05 01:15 SW 17 G 24 7.00 Fair CLR 56.3 38.8 52% 29.96 0.0
05 00:55 SW 17 G 26 10.00 Fair CLR 56.3 39.6 54% 29.96 0.0
05 00:35 SW 17 G 23 7.00 Fair CLR 56.5 39.7 54% 29.96 0.0
05 00:15 SW 17 G 24 7.00 Fair CLR 56.8 39.7 53% 29.96 0.0
04 23:55 SW 14 G 26 7.00 Fair CLR 57.4 40.1 53% 29.96 0.0
04 23:35 SW 18 G 24 7.00 Fair CLR 57.6 40.8 54% 29.96 0.0
04 23:15 SW 14 G 22 10.00 Fair CLR 58.3 40.8 52% 29.96 0.0
04 22:55 SW 9 7.00 Fair CLR 57.6 41 54% 29.97 0.0
04 22:35 SW 10 7.00 Fair CLR 58.5 41 52% 29.96 0.0
04 22:15 SW 10 7.00 Fair CLR 59 39.7 49% 29.97 0.0
04 21:55 SW 10 7.00 Fair CLR 59.5 39.2 47% 29.97 0.0
04 21:35 SW 10 7.00 Fair CLR 59.2 40.6 50% 29.97 0.0
04 20:55 S 8 7.00 Fair CLR 58.1 41.4 54% 29.96 0.0
04 20:35 S 7 7.00 Fair CLR 57.9 40.8 53% 29.96 0.0
04 19:55 S 9 7.00 Fair CLR 59.5 41.2 64.8 51.4 51% 29.95 0.0 0.02
04 19:35 SW 9 7.00 Fair CLR 59 42.4 54% 29.94 0.0
04 19:15 SW 8 7.00 Fair CLR 57.2 44.6 63% 29.94 0.0
04 18:55 W 8 7.00 Partly Cloudy SCT060 58.3 43.9 59% 29.94 0.0
04 18:35 W 12 G 20 7.00 Overcast BKN060 OVC070 57.4 44.8 63% 29.94 0.0
04 18:15 W 15 G 20 7.00 Overcast BKN060 OVC070 55.8 44.2 65% 29.94 0.0
04 17:55 W 15 G 23 7.00 Overcast SCT018 BKN070 OVC090 55.4 45.1 69% 29.94 0.0 0.02
04 17:35 W 10 G 25 7.00 Light Rain SCT018 SCT039 OVC050 51.4 45.9 81% 29.93 0.0 0.02
04 17:15 W 29 G 43 7.00 Thunderstorm Light Rain in Vicinity and Windy BKN050 BKN070 OVC080 58.5 43.2 57% 29.95 0.0
04 16:55 SW 18 G 26 7.00 Mostly Cloudy SCT055 BKN070 BKN080 63.5 40.8 44% 29.94 0.0
04 16:35 SW 18 G 25 7.00 Partly Cloudy SCT055 SCT065 63.9 40.5 42% 29.94 0.0
04 16:15 SW 20 G 23 5.00 Mostly Cloudy with Haze SCT048 SCT055 BKN065 62.6 39.9 43% 29.94 0.0
04 15:55 W 17 G 21 5.00 Partly Cloudy with Haze SCT046 SCT050 SCT080 64 41.2 43% 29.94 0.0
04 15:35 SW 18 G 24 4.00 Partly Cloudy with Haze SCT044 63.5 41.2 44% 29.94 0.0
04 15:15 W 14 G 22 5.00 Mostly Cloudy with Haze BKN046 BKN050 63.1 41.4 45% 29.95 0.0
04 14:55 SW 12 G 23 5.00 Overcast with Haze BKN044 OVC050 60.6 40.3 47% 29.96 0.0
04 14:35 S 9 G 18 7.00 Mostly Cloudy SCT044 BKN050 BKN060 62.2 40.5 45% 29.96 0.0
04 14:15 SW 15 G 24 10.00 Mostly Cloudy BKN046 BKN060 60.1 40.3 48% 29.97 0.0
04 13:55 W 16 G 20 10.00 Partly Cloudy SCT045 SCT060 61.3 40.3 61.5 46 46% 29.98 0.0
04 13:35 SW 18 G 24 10.00 Overcast SCT049 OVC060 59.5 40.3 49% 29.98 0.0
04 13:15 W 10 G 21 10.00 Mostly Cloudy SCT039 BKN060 BKN095 59 39.4 48% 29.99 0.0
04 12:55 W 14 G 20 10.00 Mostly Cloudy SCT046 SCT050 BKN090 59 40.1 50% 29.99 0.0
04 12:35 W 10 G 17 10.00 Partly Cloudy SCT050 55.4 38.5 53% 29.99 0.0
04 12:15 W 9 10.00 Fair CLR 54.1 37.6 54% 30 0.0
04 11:55 W 9 G 18 10.00 Fair CLR 53.4 37 54% 30 0.0
04 11:35 W 15 10.00 Fair CLR 53.2 36.1 52% 30 0.0
04 11:15 W 16 10.00 Fair CLR 51.4 35.1 54% 30 0.0
04 10:55 W 13 G 23 10.00 Fair CLR 52.3 35.2 52% 30.01 0.0
04 10:35 W 16 10.00 Fair CLR 51.6 34.5 52% 30.01 0.0
04 10:15 W 14 10.00 Partly Cloudy SCT065 51.8 34.7 52% 30.01 0.0
04 09:55 W 14 G 18 10.00 Fair CLR 51.3 34 52% 30 0.0
04 09:35 SW 14 10.00 Fair CLR 50.7 33.3 51% 30 0.0
04 09:15 W 10 10.00 Fair CLR 49.3 32.7 53% 45 30 0.0
04 08:55 W 9 10.00 Fair CLR 48.7 32.4 53% 45 30 0.0
04 08:35 W 12 10.00 Fair CLR 47.7 32 55% 43 29.99 0.0
04 08:15 SW 12 10.00 Fair CLR 46.9 31.8 56% 42 29.99 0.0
04 07:55 SW 13 10.00 Fair CLR 46 30.9 46 39.9 56% 41 29.99 0.0
04 07:35 SW 12 10.00 Fair CLR 45.1 30.4 56% 40 29.99 0.0
04 07:15 SW 13 10.00 Fair CLR 44.2 29.3 56% 39 29.99 0.0
04 06:55 SW 14 10.00 Fair CLR 43.7 28.4 55% 37 29.99 0.0
04 06:35 SW 14 10.00 Fair CLR 43.3 27.9 54% 37 29.98 0.0
04 06:15 SW 12 10.00 Fair CLR 42.8 26.6 53% 37 29.99 0.0
04 05:55 SW 12 10.00 Partly Cloudy SCT050 41.4 27.3 57% 35 29.98 0.0
04 05:35 W 8 10.00 Partly Cloudy SCT050 SCT070 SCT080 41.2 31.1 67% 37 29.98 0.0
04 05:15 W 8 10.00 Mostly Cloudy SCT070 BKN080 42.1 31.5 66% 38 29.99 0.0
04 04:55 W 7 10.00 Overcast BKN080 OVC090 43.7 31.1 61% 40 29.99 0.0
04 04:35 W 5 10.00 Overcast OVC090 43 32.2 66% 41 29.99 0.0
04 04:15 W 7 10.00 Overcast SCT070 OVC100 43.2 32 65% 40 29.99 0.0
04 03:55 W 10 10.00 Overcast BKN070 OVC100 43 31.8 65% 38 29.99 0.0
04 03:35 W 13 G 17 10.00 Overcast OVC070 43 31.8 65% 37 29.99 0.0
04 03:15 W 13 G 21 10.00 Overcast SCT036 SCT050 OVC070 42.3 31.6 66% 36 29.99 0.0
04 02:55 W 13 10.00 Overcast OVC038 41.9 29.7 62% 36 29.99 0.0
04 02:35 W 14 10.00 Overcast BKN040 OVC050 42.3 29.1 60% 36 30 0.0
04 02:15 W 17 G 28 10.00 Rain SCT049 OVC060 45.3 24.8 45% 39 30 0.0
04 01:55 W 13 10.00 Overcast OVC060 46 22.8 48 42.8 40% 41 30 0.0
04 01:35 W 13 10.00 Overcast SCT042 OVC070 46.2 22.8 40% 41 30 0.0
04 01:15 W 10 10.00 Overcast BKN070 OVC090 45.3 22.8 41% 41 30.01 0.0
04 00:55 W 10 10.00 Overcast SCT060 BKN080 OVC090 45.5 22.8 41% 41 30 0.0
04 00:35 W 8 10.00 Overcast BKN060 OVC080 45.5 22.8 41% 42 30 0.0
04 00:15 W 8 10.00 Overcast BKN070 OVC080 45.3 22.8 41% 42 30 0.0
03 23:55 W 7 10.00 Overcast SCT070 OVC080 45 23 42% 42 30 0.0
03 23:35 W 7 10.00 Overcast OVC070 45.1 22.8 41% 42 30 0.0
03 23:15 W 6 10.00 Mostly Cloudy BKN070 43.3 23 45% 40 30 0.0
03 22:55 SW 5 10.00 Overcast BKN070 BKN080 OVC100 44.8 21.9 40% 43 30 0.0
03 22:35 W 7 10.00 Overcast OVC100 45.7 21.2 38% 43 30.01 0.0
03 22:15 W 6 10.00 Overcast SCT080 OVC100 46.2 21 37% 44 30 0.0
03 21:55 W 7 10.00 Overcast SCT080 OVC090 47.3 20.7 35% 44 30 0.0
03 21:35 W 9 10.00 Overcast OVC095 47.3 20.5 35% 43 29.99 0.0
03 21:15 W 9 10.00 Mostly Cloudy BKN095 47.3 20.3 34% 43 29.99 0.0
03 20:55 W 9 10.00 Fair CLR 46.6 19.6 34% 43 29.98 0.0
03 20:35 W 7 10.00 Fair CLR 46.4 19.4 34% 43 29.98 0.0
03 20:15 W 9 10.00 Fair CLR 46.8 19.2 33% 43 29.98 0.0
03 19:55 W 10 10.00 Fair CLR 48.2 18.3 52.2 46.4 30% 44 29.98 0.0
03 19:35 W 10 10.00 Fair CLR 49.1 18.3 29% 45 29.98 0.0
03 19:15 W 9 10.00 Fair CLR 50 19.9 30% 47 29.98 0.0
03 18:55 W 10 G 18 10.00 Fair CLR 50.2 18.9 29% 29.98 0.0
03 18:35 W 8 10.00 Fair CLR 50.9 18.5 28% 29.98 0.0
03 18:15 W 13 G 18 10.00 Fair CLR 50.9 18.9 28% 29.98 0.0
03 17:55 W 14 G 21 10.00 Fair CLR 51.1 18.7 28% 29.98 0.0
03 17:35 W 10 G 21 10.00 Fair CLR 51.1 18.9 28% 29.98 0.0
03 17:15 W 14 G 18 10.00 Fair CLR 52.2 19.4 27% 29.98 0.0
03 16:55 W 15 G 18 10.00 Fair CLR 51.1 18.9 28% 29.98 0.0
03 16:35 W 12 G 21 10.00 Fair CLR 51.1 17.8 27% 29.98 0.0
03 16:15 W 9 G 22 10.00 Fair CLR 50.9 17.8 27% 29.99 0.0
03 15:55 W 14 G 23 10.00 Fair CLR 51.1 18.3 27% 30 0.0
03 15:35 W 8 G 23 10.00 Fair CLR 49.8 18.9 29% 47 30 0.0
03 14:55 W 16 G 24 10.00 Fair CLR 49.8 19.9 31% 45 30.01 0.0
03 14:35 W 13 G 18 10.00 Fair CLR 48 18.7 31% 43 30.02 0.0
03 14:15 NW 8 G 17 10.00 Fair CLR 47.1 19 33% 44 30.03 0.0
03 13:55 W 9 G 21 10.00 Fair CLR 46 19.2 46.9 30.9 34% 42 30.03 0.0
03 13:35 W 6 10.00 Fair CLR 46 19.9 35% 44 30.03 0.0
03 13:15 W 14 10.00 Fair CLR 46.4 21 37% 41 30.03 0.0
03 12:55 W 10 G 20 10.00 Fair CLR 44.4 20.1 38% 40 30.03 0.0
03 12:35 SW 7 10.00 Fair CLR 43.2 19.8 39% 40 30.03 0.0
03 12:15 NW 8 G 16 10.00 Fair CLR 44.2 21.2 40% 40 30.04 0.0
03 11:55 N 12 G 17 10.00 Fair CLR 42.1 19.4 40% 36 30.04 0.0
03 11:35 W 12 G 22 10.00 Fair CLR 41.5 19.4 41% 36 30.04 0.0
03 11:15 W 8 G 17 10.00 Fair CLR 40.3 19.6 43% 35 30.04 0.0
03 10:55 NW 12 G 18 10.00 Fair CLR 38.7 20.5 48% 32 30.04 0.0
03 10:35 W 8 G 18 10.00 Fair CLR 37.4 19.8 49% 32 30.04 0.0
03 10:15 NW 8 G 18 10.00 Fair CLR 37.2 20.3 50% 32 30.03 0.0
03 09:55 NW 12 G 16 10.00 Partly Cloudy SCT029 36 21 55% 29 30.03 0.0
03 09:35 NW 12 G 18 10.00 Partly Cloudy SCT027 34.3 21.6 60% 27 30.03 0.0
03 09:15 NW 12 G 18 10.00 Partly Cloudy SCT027 33.4 23 66% 26 30.02 0.0
03 08:55 NW 9 10.00 Fair CLR 32.5 23.4 69% 26 30.02 0.0
03 08:35 W 10 G 16 10.00 Fair CLR 32 23.7 72% 24 30.01 0.0
03 08:15 W 10 G 16 10.00 Fair CLR 31.6 23.4 71% 24 30 0.0
03 07:55 W 10 G 16 10.00 Fair CLR 30.9 23 34.2 29.3 72% 23 29.99 0.0
03 07:35 NW 10 10.00 Fair CLR 30.2 22.6 73% 22 29.99 0.0
03 07:15 W 10 G 20 10.00 Fair CLR 30 22.5 73% 22 29.98 0.0
03 06:55 W 12 G 21 10.00 Fair CLR 29.5 22.3 75% 21 29.97 0.0
03 06:35 W 13 G 18 10.00 Fair CLR 29.3 22.5 76% 20 29.96 0.0
03 06:15 W 15 G 23 10.00 Fair CLR 29.3 22.1 74% 19 29.95 0.0
03 05:55 W 15 G 23 10.00 Fair CLR 30 21.9 72% 20 29.94 0.0
03 05:35 NW 14 G 23 10.00 Fair CLR 30.2 21.6 70% 21 29.94 0.0
03 05:15 NW 13 G 22 10.00 Fair CLR 30.7 21.6 69% 22 29.93 0.0
03 04:55 NW 17 G 23 10.00 Fair CLR 30.9 21.6 68% 20 29.93 0.0
03 04:35 NW 15 G 21 10.00 Fair CLR 31.5 21.7 67% 22 29.93 0.0
03 04:15 W 13 G 21 10.00 Partly Cloudy SCT023 SCT029 SCT044 31.5 22.8 70% 23 29.93 0.0
03 03:55 W 10 10.00 Mostly Cloudy SCT026 SCT032 BKN044 32 24.3 73% 24 29.92 0.0
03 03:35 W 10 G 17 10.00 Mostly Cloudy SCT027 SCT032 BKN048 32 23.9 72% 24 29.92 0.0
03 03:15 NW 12 G 18 10.00 Overcast SCT028 SCT032 OVC048 32.5 24.1 71% 24 29.92 0.0
03 02:55 NW 12 G 21 10.00 Overcast SCT030 SCT036 OVC048 32.7 24.4 72% 25 29.92 0.0
03 02:35 NW 10 G 20 10.00 Overcast OVC048 33.4 24.1 69% 26 29.92 0.0
03 02:15 NW 14 G 20 10.00 Overcast OVC046 34 23.7 66% 25 29.92 0.0
03 01:55 NW 14 G 24 10.00 Mostly Cloudy SCT044 BKN049 34.2 24.3 39.9 33.8 67% 25 29.92 0.0
03 01:35 W 8 10.00 Partly Cloudy SCT041 SCT049 34 24.8 69% 28 29.93 0.0
03 01:15 NW 12 10.00 Partly Cloudy SCT041 SCT050 34 24.8 69% 26 29.93 0.0
03 00:55 NW 13 G 20 10.00 Mostly Cloudy SCT043 BKN050 34.9 25 67% 27 29.93 0.0
03 00:35 NW 9 G 16 10.00 Partly Cloudy SCT044 35.2 24.8 66% 29 29.92 0.0
03 00:15 NW 9 G 16 10.00 Fair CLR 35.1 24.4 65% 29 29.92 0.0
02 23:55 NW 8 10.00 Fair CLR 35.4 24.4 64% 30 29.92 0.0
02 23:35 W 10 G 17 10.00 Partly Cloudy SCT050 35.8 24.1 62% 29 29.93 0.0
02 23:15 NW 14 G 17 10.00 Mostly Cloudy BKN060 36.5 23.9 60% 28 29.92 0.0
02 22:55 W 10 10.00 Overcast SCT035 OVC060 36.7 23.9 60% 30 29.93 0.0
02 22:35 NW 7 10.00 Overcast OVC060 36.9 23.7 59% 32 29.93 0.0
02 22:15 W 8 10.00 Mostly Cloudy BKN060 36.5 23.5 59% 31 29.93 0.0
02 21:55 NW 7 10.00 Partly Cloudy SCT060 37.2 23.4 57% 32 29.93 0.0
02 21:35 NW 7 10.00 Partly Cloudy SCT040 SCT060 37.6 23 56% 33 29.93 0.0
02 21:15 W 8 10.00 Overcast OVC060 37.8 22.8 55% 32 29.92 0.0
02 20:55 W 9 10.00 Overcast OVC060 38.3 22.5 53% 33 29.92 0.0
02 20:35 W 7 10.00 Overcast OVC060 38.8 22.1 51% 34 29.92 0.0
02 20:15 W 7 10.00 Overcast SCT047 OVC060 39.4 21.9 50% 35 29.91 0.0
02 19:55 NW 6 10.00 Overcast SCT049 OVC060 40.1 21.7 48.7 40.1 48% 37 29.9 0.0
02 19:35 NW 9 G 18 10.00 Overcast OVC060 40.3 21.9 48% 35 29.9 0.0
02 19:15 NW 10 G 18 10.00 Overcast OVC060 40.8 22.3 48% 35 29.9 0.0
02 18:55 NW 10 G 21 10.00 Overcast SCT049 OVC060 41.2 22.5 47% 36 29.9 0.0
02 18:35 NW 10 10.00 Overcast OVC050 41.9 22.3 46% 36 29.9 0.0
02 18:15 W 12 G 18 10.00 Overcast OVC049 42.3 21.7 44% 36 29.89 0.0
02 17:55 NW 13 G 18 10.00 Overcast OVC047 42.8 23 46% 37 29.89 0.0
Date Time (edt) Wind (mph) Vis. (mi.) Weather Sky Cond. Air Dwpt Max. Min. Relative Humidity Wind Chill (°F) Heat Index (°F) altimeter (in) sea level (mb) 1 hr 3 hr 6 hr
6 hour
Temperature (ºF) Pressure Precipitation (in)